createdAt,value
2023-02-13T00:00:23.760Z,7.78
2023-02-13T00:02:51.076Z,8.52
2023-02-13T00:05:17.615Z,7.75
2023-02-13T00:07:44.169Z,7.93
2023-02-13T00:10:11.315Z,7.75
2023-02-13T00:12:37.964Z,7.55
2023-02-13T00:15:05.050Z,7.10
2023-02-13T00:17:32.195Z,8.50
2023-02-13T00:19:59.286Z,7.93
2023-02-13T00:22:27.185Z,8.35
2023-02-13T00:24:53.848Z,8.05
2023-02-13T00:27:20.443Z,7.93
2023-02-13T00:29:47.218Z,7.38
2023-02-13T00:32:14.870Z,8.20
2023-02-13T00:34:44.180Z,7.13
2023-02-13T00:37:10.970Z,7.72
2023-02-13T00:39:37.505Z,6.97
2023-02-13T00:42:04.406Z,7.03
2023-02-13T00:44:31.947Z,7.53
2023-02-13T00:46:58.591Z,7.43
2023-02-13T00:49:25.664Z,7.35
2023-02-13T00:51:52.164Z,7.28
2023-02-13T00:54:19.829Z,7.57
2023-02-13T00:56:46.596Z,7.15
2023-02-13T00:59:15.187Z,8.40
2023-02-13T01:01:41.810Z,7.70
2023-02-13T01:04:08.516Z,7.85
2023-02-13T01:06:35.199Z,7.22
2023-02-13T01:09:03.997Z,6.85
2023-02-13T01:11:30.517Z,7.07
2023-02-13T01:14:00.707Z,6.90
2023-02-13T01:16:27.646Z,7.15
2023-02-13T01:18:55.636Z,7.28
2023-02-13T01:21:25.228Z,8.20
2023-02-13T01:23:53.474Z,7.72
2023-02-13T01:26:23.512Z,8.45
2023-02-13T01:28:58.399Z,8.38
2023-02-13T01:31:26.129Z,7.00
2023-02-13T01:33:53.023Z,6.93
2023-02-13T01:36:22.234Z,6.63
2023-02-13T01:38:48.801Z,6.93
2023-02-13T01:41:15.755Z,6.95
2023-02-13T01:43:47.540Z,6.45
2023-02-13T01:46:19.322Z,6.75
2023-02-13T01:48:47.890Z,6.47
2023-02-13T01:51:23.627Z,7.03
2023-02-13T01:53:56.517Z,6.68
2023-02-13T01:56:36.402Z,6.15
2023-02-13T01:59:08.777Z,7.38
2023-02-13T02:01:36.467Z,7.20
2023-02-13T02:04:10.909Z,6.82
2023-02-13T02:06:42.523Z,6.50
2023-02-13T02:09:17.286Z,6.25
2023-02-13T02:12:03.710Z,6.53
2023-02-13T02:14:30.662Z,6.35
2023-02-13T02:16:57.685Z,6.40
2023-02-13T02:19:44.618Z,7.00
2023-02-13T02:22:19.925Z,6.50
2023-02-13T02:25:04.897Z,6.60
2023-02-13T02:28:09.771Z,6.32
2023-02-13T02:31:18.372Z,6.38
2023-02-13T02:34:11.474Z,6.60
2023-02-13T02:37:05.438Z,5.72
2023-02-13T02:39:53.676Z,6.28
2023-02-13T02:42:39.781Z,6.68
2023-02-13T02:45:19.651Z,6.53
2023-02-13T02:48:39.710Z,6.53
2023-02-13T02:51:46.479Z,6.28
2023-02-13T02:54:43.625Z,6.78
2023-02-13T02:57:15.653Z,6.07
2023-02-13T03:00:04.685Z,6.32
2023-02-13T03:02:54.089Z,6.80
2023-02-13T03:06:05.013Z,6.93
2023-02-13T03:08:50.325Z,6.80
2023-02-13T03:11:49.133Z,6.53
2023-02-13T03:14:20.935Z,6.28
2023-02-13T03:17:07.369Z,5.80
2023-02-13T03:20:21.797Z,7.47
2023-02-13T03:23:15.451Z,7.05
2023-02-13T03:26:11.312Z,6.85
2023-02-13T03:29:02.798Z,6.47
2023-02-13T03:31:40.461Z,6.90
2023-02-13T03:34:10.753Z,7.18
2023-02-13T03:37:02.110Z,6.93
2023-02-13T03:40:03.011Z,7.18
2023-02-13T03:42:35.582Z,6.32
2023-02-13T03:45:36.817Z,6.90
2023-02-13T03:48:09.932Z,7.25
2023-02-13T03:50:41.535Z,6.90
2023-02-13T03:53:14.598Z,7.28
2023-02-13T03:56:04.768Z,7.50
2023-02-13T03:58:54.611Z,8.15
2023-02-13T04:01:26.353Z,6.97
2023-02-13T04:04:01.259Z,6.82
2023-02-13T04:06:33.132Z,6.55
2023-02-13T04:08:59.810Z,6.40
2023-02-13T04:11:56.235Z,7.10
2023-02-13T04:14:51.563Z,6.70
2023-02-13T04:17:24.462Z,7.15
2023-02-13T04:19:53.492Z,6.90
2023-02-13T04:22:20.775Z,6.85
2023-02-13T04:24:47.686Z,6.80
2023-02-13T04:27:16.683Z,6.57
2023-02-13T04:29:43.475Z,8.23
2023-02-13T04:32:12.791Z,7.82
2023-02-13T04:34:40.121Z,6.78
2023-02-13T04:37:06.620Z,7.75
2023-02-13T04:39:33.093Z,7.43
2023-02-13T04:41:59.662Z,7.70
2023-02-13T04:44:26.247Z,6.63
2023-02-13T04:46:52.889Z,7.30
2023-02-13T04:49:19.415Z,7.30
2023-02-13T04:51:45.904Z,6.57
2023-02-13T04:54:12.494Z,6.40
2023-02-13T04:56:39.342Z,6.70
2023-02-13T04:59:05.895Z,6.65
2023-02-13T05:01:32.616Z,6.80
2023-02-13T05:04:00.551Z,6.28
2023-02-13T05:06:27.096Z,6.10
2023-02-13T05:08:53.824Z,6.55
2023-02-13T05:11:20.399Z,7.15
2023-02-13T05:13:47.044Z,6.50
2023-02-13T05:16:13.611Z,6.38
2023-02-13T05:18:40.145Z,6.05
2023-02-13T05:21:25.618Z,6.03
2023-02-13T05:23:52.120Z,6.68
2023-02-13T05:26:18.636Z,6.10
2023-02-13T05:29:05.844Z,6.28
2023-02-13T05:31:33.377Z,6.00
2023-02-13T05:34:00.036Z,6.03
2023-02-13T05:36:26.634Z,5.88
2023-02-13T05:38:53.474Z,6.30
2023-02-13T05:41:20.034Z,5.88
2023-02-13T05:43:46.495Z,6.30
2023-02-13T05:46:13.083Z,5.93
2023-02-13T05:48:39.639Z,6.32
2023-02-13T05:51:07.496Z,6.05
2023-02-13T05:53:35.484Z,5.97
2023-02-13T05:56:02.803Z,6.60
2023-02-13T05:58:29.909Z,6.25
2023-02-13T06:00:58.868Z,5.55
2023-02-13T06:03:26.995Z,5.93
2023-02-13T06:05:54.645Z,6.13
2023-02-13T06:08:22.160Z,5.78
2023-02-13T06:10:49.410Z,6.00
2023-02-13T06:13:16.597Z,6.22
2023-02-13T06:15:43.409Z,6.30
2023-02-13T06:18:10.384Z,5.78
2023-02-13T06:20:37.075Z,6.50
2023-02-13T06:23:04.053Z,5.68
2023-02-13T06:25:30.818Z,6.15
2023-02-13T06:27:57.394Z,5.55
2023-02-13T06:30:24.033Z,6.13
2023-02-13T06:32:50.529Z,5.93
2023-02-13T06:35:17.177Z,5.82
2023-02-13T06:37:44.022Z,6.18
2023-02-13T06:40:11.957Z,6.15
2023-02-13T06:42:38.500Z,5.88
2023-02-13T06:45:05.565Z,6.93
2023-02-13T06:47:32.109Z,6.45
2023-02-13T06:49:58.740Z,6.00
2023-02-13T06:52:25.345Z,6.38
2023-02-13T06:54:51.817Z,6.43
2023-02-13T06:57:18.467Z,6.38
2023-02-13T06:59:45.065Z,6.20
2023-02-13T07:02:13.149Z,6.07
2023-02-13T07:04:40.564Z,5.90
2023-02-13T07:07:07.164Z,6.18
2023-02-13T07:09:33.882Z,5.60
2023-02-13T07:12:05.081Z,5.72
2023-02-13T07:14:31.752Z,5.47
2023-02-13T07:16:58.984Z,5.68
2023-02-13T07:19:25.641Z,5.03
2023-02-13T07:21:52.233Z,5.20
2023-02-13T07:24:18.744Z,5.32
2023-02-13T07:26:45.292Z,6.63
2023-02-13T07:29:12.481Z,5.60
2023-02-13T07:31:40.090Z,5.78
2023-02-13T07:34:07.307Z,5.88
2023-02-13T07:36:34.297Z,5.75
2023-02-13T07:39:00.809Z,5.00
2023-02-13T07:41:27.327Z,5.25
2023-02-13T07:43:54.980Z,5.63
2023-02-13T07:46:21.555Z,5.28
2023-02-13T07:48:48.486Z,5.35
2023-02-13T07:51:15.946Z,4.95
2023-02-13T07:53:42.469Z,4.97
2023-02-13T07:56:10.252Z,5.05
2023-02-13T07:58:40.061Z,5.35
2023-02-13T08:01:08.474Z,5.32
2023-02-13T08:03:35.452Z,5.47
2023-02-13T08:06:02.658Z,5.60
2023-02-13T08:08:29.503Z,5.18
2023-02-13T08:11:15.330Z,5.65
2023-02-13T08:13:43.591Z,5.45
2023-02-13T08:16:10.230Z,5.03
2023-02-13T08:18:36.853Z,5.57
2023-02-13T08:21:03.950Z,5.53
2023-02-13T08:23:30.858Z,6.38
2023-02-13T08:26:01.396Z,5.38
2023-02-13T08:28:31.479Z,5.40
2023-02-13T08:30:58.528Z,4.82
2023-02-13T08:33:25.336Z,4.78
2023-02-13T08:35:52.044Z,5.20
2023-02-13T08:38:21.449Z,5.00
2023-02-13T08:40:48.099Z,4.50
2023-02-13T08:43:14.785Z,4.55
2023-02-13T08:45:41.929Z,4.75
2023-02-13T08:48:08.993Z,4.63
2023-02-13T08:50:37.053Z,4.50
2023-02-13T08:53:04.944Z,5.20
2023-02-13T08:55:33.610Z,4.50
2023-02-13T08:58:02.369Z,5.15
2023-02-13T09:00:29.593Z,5.30
2023-02-13T09:03:00.781Z,4.60
2023-02-13T09:05:27.632Z,4.95
2023-02-13T09:07:54.136Z,4.35
2023-02-13T09:10:20.877Z,4.72
2023-02-13T09:12:54.446Z,4.57
2023-02-13T09:15:21.042Z,4.85
2023-02-13T09:17:47.702Z,5.10
2023-02-13T09:20:14.687Z,4.95
2023-02-13T09:22:41.733Z,4.97
2023-02-13T09:25:09.332Z,5.35
2023-02-13T09:27:36.846Z,4.95
2023-02-13T09:30:03.506Z,4.50
2023-02-13T09:32:30.139Z,4.53
2023-02-13T09:34:56.847Z,4.78
2023-02-13T09:37:24.194Z,4.20
2023-02-13T09:39:51.224Z,4.88
2023-02-13T09:42:25.085Z,3.78
2023-02-13T09:45:00.742Z,4.03
2023-02-13T09:47:40.019Z,4.00
2023-02-13T09:50:22.346Z,3.53
2023-02-13T09:52:52.151Z,3.40
2023-02-13T09:55:24.132Z,2.70
2023-02-13T09:58:04.885Z,3.10
2023-02-13T10:00:39.905Z,3.25
2023-02-13T10:03:28.714Z,3.67
2023-02-13T10:05:58.397Z,3.00
2023-02-13T10:08:57.551Z,3.00
2023-02-13T10:12:01.217Z,3.25
2023-02-13T10:14:42.805Z,3.38
2023-02-13T10:17:20.169Z,2.75
2023-02-13T10:20:03.453Z,2.80
2023-02-13T10:22:37.161Z,2.10
2023-02-13T10:25:08.927Z,2.13
2023-02-13T10:27:40.304Z,2.10
2023-02-13T10:30:18.659Z,1.67
2023-02-13T10:33:19.526Z,2.03
2023-02-13T10:36:27.885Z,1.40
2023-02-13T10:39:02.390Z,1.98
2023-02-13T10:41:46.037Z,2.58
2023-02-13T10:44:16.232Z,1.65
2023-02-13T10:47:00.927Z,1.48
2023-02-13T10:49:56.077Z,1.50
2023-02-13T10:52:38.861Z,1.52
2023-02-13T10:55:43.296Z,1.35
2023-02-13T10:58:19.011Z,1.30
2023-02-13T11:01:07.452Z,0.95
2023-02-13T11:03:33.938Z,1.33
2023-02-13T11:06:06.384Z,0.88
2023-02-13T11:08:37.531Z,1.10
2023-02-13T11:11:04.150Z,1.25
2023-02-13T11:13:31.029Z,1.20
2023-02-13T11:16:06.379Z,1.50
2023-02-13T11:18:50.452Z,0.73
2023-02-13T11:21:22.041Z,0.93
2023-02-13T11:23:55.063Z,1.40
2023-02-13T11:26:27.582Z,1.30
2023-02-13T11:28:57.341Z,0.90
2023-02-13T11:31:30.764Z,1.30
2023-02-13T11:33:59.417Z,1.10
2023-02-13T11:36:26.039Z,5.28
2023-02-13T11:39:02.014Z,2.03
2023-02-13T11:41:29.844Z,1.08
2023-02-13T11:44:01.693Z,1.05
2023-02-13T11:46:46.173Z,0.90
2023-02-13T11:49:20.167Z,0.47
2023-02-13T11:51:49.984Z,0.80
2023-02-13T11:54:24.582Z,0.50
2023-02-13T11:57:19.985Z,0.70
2023-02-13T11:59:49.593Z,0.70
2023-02-13T12:02:20.810Z,1.42
2023-02-13T12:04:50.874Z,0.70
2023-02-13T12:07:27.655Z,0.85
2023-02-13T12:10:01.992Z,0.90
2023-02-13T12:12:56.245Z,0.90
2023-02-13T12:15:26.678Z,0.80
2023-02-13T12:18:23.594Z,0.73
2023-02-13T12:21:05.751Z,0.77
2023-02-13T12:23:46.377Z,0.70
2023-02-13T12:26:25.160Z,0.90
2023-02-13T12:29:06.978Z,0.93
2023-02-13T12:31:47.007Z,0.68
2023-02-13T12:34:38.255Z,1.08
2023-02-13T12:37:20.251Z,0.80
2023-02-13T12:40:24.698Z,0.82
2023-02-13T12:43:23.785Z,0.75
2023-02-13T12:46:14.445Z,1.05
2023-02-13T12:49:16.453Z,0.88
2023-02-13T12:51:49.214Z,0.80
2023-02-13T12:54:27.563Z,0.77
2023-02-13T12:57:24.100Z,0.88
2023-02-13T13:00:15.289Z,1.10
2023-02-13T13:03:04.385Z,0.73
2023-02-13T13:05:50.667Z,1.00
2023-02-13T13:08:46.517Z,1.00
2023-02-13T13:11:18.692Z,1.00
2023-02-13T13:14:00.976Z,1.05
2023-02-13T13:16:56.286Z,1.13
2023-02-13T13:19:45.941Z,0.60
2023-02-13T13:22:25.286Z,1.05
2023-02-13T13:24:57.972Z,1.20
2023-02-13T13:27:36.340Z,1.13
2023-02-13T13:30:13.595Z,2.30
2023-02-13T13:32:43.573Z,0.80
2023-02-13T13:35:16.998Z,1.30
2023-02-13T13:38:11.285Z,2.58
2023-02-13T13:40:54.192Z,1.35
2023-02-13T13:43:25.937Z,1.45
2023-02-13T13:46:06.921Z,1.20
2023-02-13T13:48:50.937Z,1.40
2023-02-13T13:51:19.114Z,1.45
2023-02-13T13:54:00.961Z,1.45
2023-02-13T13:56:54.192Z,1.50
2023-02-13T13:59:43.501Z,1.35
2023-02-13T14:02:18.868Z,2.00
2023-02-13T14:05:22.806Z,1.58
2023-02-13T14:07:54.819Z,1.67
2023-02-13T14:10:26.903Z,1.45
2023-02-13T14:12:56.379Z,1.40
2023-02-13T14:15:46.023Z,1.60
2023-02-13T14:18:12.814Z,1.50
2023-02-13T14:20:50.799Z,1.50
2023-02-13T14:23:42.300Z,2.15
2023-02-13T14:26:23.218Z,2.15
2023-02-13T14:28:49.673Z,1.65
2023-02-13T14:31:25.111Z,1.90
2023-02-13T14:34:23.964Z,1.73
2023-02-13T14:37:12.141Z,1.75
2023-02-13T14:39:42.193Z,1.92
2023-02-13T14:42:44.770Z,2.30
2023-02-13T14:45:24.227Z,2.28
2023-02-13T14:47:55.412Z,2.10
2023-02-13T14:50:24.880Z,2.22
2023-02-13T14:52:54.144Z,2.10
2023-02-13T14:55:33.698Z,2.47
2023-02-13T14:58:23.655Z,2.20
2023-02-13T15:01:14.179Z,2.65
2023-02-13T15:03:40.999Z,3.03
2023-02-13T15:06:15.409Z,3.33
2023-02-13T15:08:49.033Z,3.58
2023-02-13T15:11:36.366Z,3.25
2023-02-13T15:14:21.776Z,4.00
2023-02-13T15:17:02.571Z,3.05
2023-02-13T15:19:29.860Z,3.67
2023-02-13T15:22:01.007Z,3.60
2023-02-13T15:24:38.542Z,3.63
2023-02-13T15:27:07.544Z,3.88
2023-02-13T15:29:47.888Z,3.75
2023-02-13T15:32:25.531Z,3.95
2023-02-13T15:34:52.083Z,3.83
2023-02-13T15:37:28.690Z,4.05
2023-02-13T15:40:14.068Z,3.80
2023-02-13T15:42:40.688Z,4.03
2023-02-13T15:45:14.957Z,3.00
2023-02-13T15:47:44.127Z,4.78
2023-02-13T15:50:28.121Z,4.32
2023-02-13T15:52:55.082Z,3.50
2023-02-13T15:55:28.353Z,3.35
2023-02-13T15:57:57.941Z,4.35
2023-02-13T16:00:31.736Z,5.30
2023-02-13T16:03:00.246Z,3.72
2023-02-13T16:05:39.540Z,4.18
2023-02-13T16:08:38.172Z,3.75
2023-02-13T16:11:30.281Z,3.75
2023-02-13T16:14:03.913Z,4.25
2023-02-13T16:16:34.833Z,4.80
2023-02-13T16:19:02.347Z,3.78
2023-02-13T16:21:31.501Z,4.45
2023-02-13T16:24:02.248Z,4.07
2023-02-13T16:26:29.159Z,4.20
2023-02-13T16:28:56.148Z,4.07
2023-02-13T16:31:23.786Z,4.45
2023-02-13T16:33:50.592Z,5.63
2023-02-13T16:36:27.014Z,6.00
2023-02-13T16:38:53.993Z,4.20
2023-02-13T16:41:23.747Z,4.75
2023-02-13T16:44:01.138Z,4.30
2023-02-13T16:46:29.739Z,4.90
2023-02-13T16:48:57.233Z,4.35
2023-02-13T16:51:30.138Z,4.82
2023-02-13T16:54:20.861Z,3.70
2023-02-13T16:56:52.899Z,3.67
2023-02-13T16:59:47.322Z,4.43
2023-02-13T17:02:19.931Z,4.07
2023-02-13T17:04:50.921Z,3.72
2023-02-13T17:07:21.480Z,4.18
2023-02-13T17:10:00.175Z,5.28
2023-02-13T17:12:30.540Z,4.07
2023-02-13T17:14:59.677Z,4.22
2023-02-13T17:17:29.666Z,4.10
2023-02-13T17:19:57.137Z,3.42
2023-02-13T17:22:37.326Z,3.70
2023-02-13T17:25:07.837Z,3.72
2023-02-13T17:27:34.604Z,4.38
2023-02-13T17:30:01.297Z,3.67
2023-02-13T17:32:28.329Z,4.00
2023-02-13T17:34:54.911Z,4.75
2023-02-13T17:40:25.857Z,6.15
2023-02-13T17:42:55.390Z,6.40
2023-02-13T17:45:25.387Z,6.72
2023-02-13T17:47:51.988Z,7.10
2023-02-13T17:50:18.986Z,6.32
2023-02-13T17:52:48.927Z,6.20
2023-02-13T17:55:22.767Z,5.55
2023-02-13T17:57:49.946Z,5.15
2023-02-13T18:00:17.743Z,4.82
2023-02-13T18:02:44.404Z,4.88
2023-02-13T18:05:11.562Z,5.05
2023-02-13T18:07:39.474Z,5.13
2023-02-13T18:10:10.884Z,4.85
2023-02-13T18:12:38.964Z,5.72
2023-02-13T18:15:06.002Z,5.32
2023-02-13T18:17:32.608Z,4.70
2023-02-13T18:19:59.251Z,6.20
2023-02-13T18:22:25.803Z,5.57
2023-02-13T18:24:52.397Z,4.75
2023-02-13T18:27:19.424Z,5.30
2023-02-13T18:29:46.201Z,5.28
2023-02-13T18:32:14.177Z,5.60
2023-02-13T18:34:40.868Z,5.53
2023-02-13T18:37:08.664Z,5.45
2023-02-13T18:39:35.147Z,5.50
2023-02-13T18:42:01.786Z,6.65
2023-02-13T18:44:29.127Z,5.50
2023-02-13T18:46:55.911Z,5.35
2023-02-13T18:49:22.564Z,5.72
2023-02-13T18:51:49.159Z,5.22
2023-02-13T18:54:16.407Z,5.97
2023-02-13T18:56:42.983Z,6.00
2023-02-13T18:59:09.600Z,6.05
2023-02-13T19:01:36.627Z,5.72
2023-02-13T19:04:04.323Z,6.30
2023-02-13T19:06:31.631Z,6.35
2023-02-13T19:08:59.273Z,6.40
2023-02-13T19:11:27.183Z,6.60
2023-02-13T19:14:00.486Z,6.07
2023-02-13T19:16:29.564Z,7.07
2023-02-13T19:18:59.609Z,7.13
2023-02-13T19:21:28.810Z,7.03
2023-02-13T19:23:55.629Z,6.05
2023-02-13T19:26:25.020Z,6.50
2023-02-13T19:28:56.200Z,6.47
2023-02-13T19:31:25.897Z,6.10
2023-02-13T19:33:53.960Z,6.07
2023-02-13T19:36:25.786Z,6.32
2023-02-13T19:38:56.951Z,6.40
2023-02-13T19:41:24.492Z,6.00
2023-02-13T19:43:53.561Z,6.03
2023-02-13T19:46:28.223Z,6.90
2023-02-13T19:48:55.287Z,6.55
2023-02-13T19:51:28.108Z,6.22
2023-02-13T19:54:00.167Z,6.00
2023-02-13T19:56:29.063Z,5.80
2023-02-13T19:58:56.011Z,6.50
2023-02-13T20:01:24.648Z,6.60
2023-02-13T20:03:51.595Z,7.43
2023-02-13T20:06:22.125Z,7.18
2023-02-13T20:08:49.928Z,7.22
2023-02-13T20:11:18.008Z,7.53
2023-02-13T20:13:44.711Z,7.00
2023-02-13T20:16:15.117Z,7.53
2023-02-13T20:18:42.073Z,8.90
2023-02-13T20:21:11.832Z,8.80
2023-02-13T20:23:38.837Z,8.63
2023-02-13T20:26:15.137Z,8.38
2023-02-13T20:28:43.538Z,8.77
2023-02-13T20:31:12.347Z,8.45
2023-02-13T20:33:42.487Z,7.13
2023-02-13T20:36:10.363Z,7.18
2023-02-13T20:38:37.135Z,7.60
2023-02-13T20:41:12.260Z,7.82
2023-02-13T20:43:39.364Z,7.65
2023-02-13T20:46:07.130Z,8.32
2023-02-13T20:48:36.721Z,7.70
2023-02-13T20:51:05.589Z,9.32
2023-02-13T20:53:32.625Z,8.23
2023-02-13T20:56:11.030Z,8.50
2023-02-13T20:58:38.314Z,9.27
2023-02-13T21:01:12.065Z,9.07
2023-02-13T21:03:38.834Z,9.18
2023-02-13T21:06:08.937Z,9.65
2023-02-13T21:08:37.055Z,10.02
2023-02-13T21:11:05.344Z,8.70
2023-02-13T21:13:35.513Z,8.95
2023-02-13T21:16:06.430Z,8.48
2023-02-13T21:18:33.453Z,8.90
2023-02-13T21:21:00.432Z,9.10
2023-02-13T21:23:27.303Z,8.90
2023-02-13T21:25:53.788Z,8.55
2023-02-13T21:28:20.526Z,8.18
2023-02-13T21:30:47.000Z,9.48
2023-02-13T21:33:13.499Z,9.52
2023-02-13T21:35:39.972Z,9.32
2023-02-13T21:38:06.633Z,10.45
2023-02-13T21:40:33.075Z,9.68
2023-02-13T21:42:59.658Z,10.00
2023-02-13T21:45:26.186Z,10.10
2023-02-13T21:47:56.651Z,9.68
2023-02-13T21:50:24.310Z,8.02
2023-02-13T21:52:50.784Z,9.07
2023-02-13T21:55:17.249Z,9.88
2023-02-13T21:57:44.792Z,9.35
2023-02-13T22:00:12.081Z,8.20
2023-02-13T22:02:41.560Z,10.10
2023-02-13T22:05:08.410Z,8.18
2023-02-13T22:07:54.944Z,7.70
2023-02-13T22:10:21.592Z,8.10
2023-02-13T22:12:51.837Z,7.55
2023-02-13T22:15:18.767Z,8.02
2023-02-13T22:17:45.393Z,8.27
2023-02-13T22:20:12.891Z,7.25
2023-02-13T22:22:39.609Z,7.53
2023-02-13T22:25:06.520Z,8.07
2023-02-13T22:27:32.992Z,8.13
2023-02-13T22:29:59.537Z,8.57
2023-02-13T22:32:26.088Z,7.15
2023-02-13T22:34:52.524Z,8.05
2023-02-13T22:37:18.983Z,8.05
2023-02-13T22:39:45.504Z,8.40
2023-02-13T22:42:12.001Z,8.07
2023-02-13T22:44:39.007Z,8.13
2023-02-13T22:47:07.279Z,8.82
2023-02-13T22:49:35.500Z,9.45
2023-02-13T22:52:02.088Z,8.00
2023-02-13T22:54:28.895Z,9.40
2023-02-13T22:56:56.422Z,8.95
2023-02-13T22:59:23.055Z,10.02
2023-02-13T23:01:49.575Z,9.63
2023-02-13T23:04:16.529Z,9.38
2023-02-13T23:06:43.364Z,8.52
2023-02-13T23:09:09.920Z,8.13
2023-02-13T23:11:55.141Z,7.25
2023-02-13T23:14:25.361Z,8.85
2023-02-13T23:17:10.556Z,7.88
2023-02-13T23:19:37.089Z,8.27
2023-02-13T23:22:03.598Z,8.50
2023-02-13T23:24:30.829Z,8.10
2023-02-13T23:26:58.397Z,7.93
2023-02-13T23:29:25.355Z,7.70
2023-02-13T23:31:52.859Z,7.82
2023-02-13T23:34:19.660Z,7.65
2023-02-13T23:36:46.146Z,7.65
2023-02-13T23:39:12.858Z,7.35
2023-02-13T23:41:39.322Z,7.03
2023-02-13T23:44:05.853Z,6.97
2023-02-13T23:46:32.494Z,7.50
2023-02-13T23:48:59.141Z,7.20
2023-02-13T23:51:25.949Z,7.32
2023-02-13T23:53:55.938Z,7.30
2023-02-13T23:56:23.376Z,7.28
2023-02-13T23:58:49.836Z,7.30
